sensor_id;sensor_type;location;lat;lon;timestamp;pressure;altitude;pressure_sealevel;temperature;humidity
74343;BME280;62767;50.300;8.070;2024-02-21T00:00:56;100743.06;;;20.34;43.54
74343;BME280;62767;50.300;8.070;2024-02-21T00:03:21;100742.22;;;20.34;43.72
74343;BME280;62767;50.300;8.070;2024-02-21T00:05:47;100750.16;;;20.34;43.35
74343;BME280;62767;50.300;8.070;2024-02-21T00:08:13;100736.09;;;20.33;43.36
74343;BME280;62767;50.300;8.070;2024-02-21T00:10:38;100735.38;;;20.31;43.51
74343;BME280;62767;50.300;8.070;2024-02-21T00:13:04;100738.03;;;20.31;43.34
74343;BME280;62767;50.300;8.070;2024-02-21T00:15:29;100732.03;;;20.29;43.57
74343;BME280;62767;50.300;8.070;2024-02-21T00:17:55;100726.03;;;20.27;43.50
74343;BME280;62767;50.300;8.070;2024-02-21T00:20:20;100739.22;;;20.27;43.66
74343;BME280;62767;50.300;8.070;2024-02-21T00:22:46;100735.78;;;20.27;43.50
74343;BME280;62767;50.300;8.070;2024-02-21T00:25:11;100724.38;;;20.26;43.74
74343;BME280;62767;50.300;8.070;2024-02-21T00:27:37;100722.69;;;20.25;43.53
74343;BME280;62767;50.300;8.070;2024-02-21T00:30:03;100713.91;;;20.25;43.55
74343;BME280;62767;50.300;8.070;2024-02-21T00:32:28;100713.19;;;20.23;43.52
74343;BME280;62767;50.300;8.070;2024-02-21T00:34:54;100719.31;;;20.23;43.51
74343;BME280;62767;50.300;8.070;2024-02-21T00:37:19;100734.34;;;20.23;43.41
74343;BME280;62767;50.300;8.070;2024-02-21T00:39:45;100744.22;;;20.21;43.54
74343;BME280;62767;50.300;8.070;2024-02-21T00:42:10;100732.81;;;20.20;43.67
74343;BME280;62767;50.300;8.070;2024-02-21T00:44:36;100737.25;;;20.20;43.51
74343;BME280;62767;50.300;8.070;2024-02-21T00:47:01;100743.38;;;20.20;43.44
74343;BME280;62767;50.300;8.070;2024-02-21T00:49:27;100743.50;;;20.19;43.42
74343;BME280;62767;50.300;8.070;2024-02-21T00:51:52;100747.97;;;20.18;43.67
74343;BME280;62767;50.300;8.070;2024-02-21T00:54:18;100755.16;;;20.16;43.48
74343;BME280;62767;50.300;8.070;2024-02-21T00:56:43;100745.59;;;20.15;43.53
74343;BME280;62767;50.300;8.070;2024-02-21T00:59:09;100744.75;;;20.14;43.57
74343;BME280;62767;50.300;8.070;2024-02-21T01:01:34;100753.63;;;20.13;43.50
74343;BME280;62767;50.300;8.070;2024-02-21T01:04:00;100752.78;;;20.13;43.58
74343;BME280;62767;50.300;8.070;2024-02-21T01:06:25;100744.03;;;20.12;43.61
74343;BME280;62767;50.300;8.070;2024-02-21T01:08:51;100734.53;;;20.10;43.36
74343;BME280;62767;50.300;8.070;2024-02-21T01:11:16;100731.91;;;20.10;43.69
74343;BME280;62767;50.300;8.070;2024-02-21T01:13:42;100724.13;;;20.08;43.60
74343;BME280;62767;50.300;8.070;2024-02-21T01:16:08;100718.00;;;20.08;43.63
74343;BME280;62767;50.300;8.070;2024-02-21T01:18:34;100719.78;;;20.07;43.68
74343;BME280;62767;50.300;8.070;2024-02-21T01:20:59;100711.16;;;20.05;43.70
74343;BME280;62767;50.300;8.070;2024-02-21T01:23:25;100718.13;;;20.06;43.51
74343;BME280;62767;50.300;8.070;2024-02-21T01:25:51;100706.69;;;20.06;43.43
74343;BME280;62767;50.300;8.070;2024-02-21T01:28:17;100705.03;;;20.05;43.67
74343;BME280;62767;50.300;8.070;2024-02-21T01:30:43;100695.44;;;20.04;43.44
74343;BME280;62767;50.300;8.070;2024-02-21T01:33:08;100690.16;;;20.04;43.68
74343;BME280;62767;50.300;8.070;2024-02-21T01:35:35;100688.47;;;20.03;43.57
74343;BME280;62767;50.300;8.070;2024-02-21T01:38:01;100676.22;;;20.02;43.46
74343;BME280;62767;50.300;8.070;2024-02-21T01:40:26;100679.84;;;20.01;43.61
74343;BME280;62767;50.300;8.070;2024-02-21T01:42:55;100665.78;;;20.00;43.56
74343;BME280;62767;50.300;8.070;2024-02-21T01:45:20;100648.25;;;19.99;43.61
74343;BME280;62767;50.300;8.070;2024-02-21T01:47:46;100634.19;;;19.99;43.45
74343;BME280;62767;50.300;8.070;2024-02-21T01:50:14;100652.69;;;19.99;43.63
74343;BME280;62767;50.300;8.070;2024-02-21T01:52:40;100661.63;;;19.98;43.42
74343;BME280;62767;50.300;8.070;2024-02-21T01:55:06;100673.97;;;19.97;43.54
74343;BME280;62767;50.300;8.070;2024-02-21T01:57:32;100662.28;;;20.00;43.38
74343;BME280;62767;50.300;8.070;2024-02-21T01:59:58;100659.41;;;20.03;43.29
74343;BME280;62767;50.300;8.070;2024-02-21T02:02:24;100663.56;;;20.05;43.33
74343;BME280;62767;50.300;8.070;2024-02-21T02:04:50;100657.91;;;20.10;43.41
74343;BME280;62767;50.300;8.070;2024-02-21T02:07:15;100662.81;;;20.14;43.45
74343;BME280;62767;50.300;8.070;2024-02-21T02:09:41;100666.84;;;20.19;43.10
74343;BME280;62767;50.300;8.070;2024-02-21T02:12:07;100654.09;;;20.24;42.85
74343;BME280;62767;50.300;8.070;2024-02-21T02:14:33;100647.44;;;20.29;42.92
74343;BME280;62767;50.300;8.070;2024-02-21T02:16:59;100646.09;;;20.35;42.77
74343;BME280;62767;50.300;8.070;2024-02-21T02:19:24;100629.69;;;20.41;42.90
74343;BME280;62767;50.300;8.070;2024-02-21T02:21:51;100623.88;;;20.47;42.66
74343;BME280;62767;50.300;8.070;2024-02-21T02:24:22;100613.47;;;20.55;42.40
74343;BME280;62767;50.300;8.070;2024-02-21T02:26:49;100610.28;;;20.61;42.54
74343;BME280;62767;50.300;8.070;2024-02-21T02:29:14;100610.44;;;20.69;42.34
74343;BME280;62767;50.300;8.070;2024-02-21T02:31:40;100616.84;;;20.76;42.30
74343;BME280;62767;50.300;8.070;2024-02-21T02:34:05;100616.44;;;20.81;42.07
74343;BME280;62767;50.300;8.070;2024-02-21T02:36:33;100623.69;;;20.88;41.97
74343;BME280;62767;50.300;8.070;2024-02-21T02:38:59;100620.50;;;20.94;42.02
74343;BME280;62767;50.300;8.070;2024-02-21T02:41:25;100622.59;;;21.01;41.80
74343;BME280;62767;50.300;8.070;2024-02-21T02:43:50;100616.91;;;21.05;41.85
74343;BME280;62767;50.300;8.070;2024-02-21T02:46:16;100616.34;;;21.11;41.67
74343;BME280;62767;50.300;8.070;2024-02-21T02:48:41;100610.75;;;21.14;41.59
74343;BME280;62767;50.300;8.070;2024-02-21T02:51:07;100592.00;;;21.17;41.61
74343;BME280;62767;50.300;8.070;2024-02-21T02:53:32;100591.69;;;21.20;41.59
74343;BME280;62767;50.300;8.070;2024-02-21T02:55:58;100589.75;;;21.22;41.31
74343;BME280;62767;50.300;8.070;2024-02-21T02:58:23;100592.13;;;21.25;41.34
74343;BME280;62767;50.300;8.070;2024-02-21T03:00:49;100581.53;;;21.25;41.20
74343;BME280;62767;50.300;8.070;2024-02-21T03:03:14;100572.63;;;21.26;41.48
74343;BME280;62767;50.300;8.070;2024-02-21T03:05:40;100568.16;;;21.27;41.38
74343;BME280;62767;50.300;8.070;2024-02-21T03:08:05;100566.34;;;21.27;41.14
74343;BME280;62767;50.300;8.070;2024-02-21T03:10:33;100549.50;;;21.28;41.00
74343;BME280;62767;50.300;8.070;2024-02-21T03:12:58;100544.91;;;21.30;41.32
74343;BME280;62767;50.300;8.070;2024-02-21T03:15:24;100537.50;;;21.34;41.13
74343;BME280;62767;50.300;8.070;2024-02-21T03:17:49;100526.34;;;21.40;40.86
74343;BME280;62767;50.300;8.070;2024-02-21T03:20:15;100525.78;;;21.36;40.88
74343;BME280;62767;50.300;8.070;2024-02-21T03:22:41;100535.56;;;21.36;40.69
74343;BME280;62767;50.300;8.070;2024-02-21T03:25:08;100527.75;;;21.34;40.98
74343;BME280;62767;50.300;8.070;2024-02-21T03:27:33;100524.38;;;21.32;40.86
74343;BME280;62767;50.300;8.070;2024-02-21T03:29:59;100519.38;;;21.29;41.09
74343;BME280;62767;50.300;8.070;2024-02-21T03:32:24;100515.19;;;21.27;41.22
74343;BME280;62767;50.300;8.070;2024-02-21T03:34:50;100526.09;;;21.24;41.04
74343;BME280;62767;50.300;8.070;2024-02-21T03:37:15;100530.69;;;21.22;41.22
74343;BME280;62767;50.300;8.070;2024-02-21T03:39:41;100534.31;;;21.21;41.19
74343;BME280;62767;50.300;8.070;2024-02-21T03:42:07;100544.88;;;21.21;41.41
74343;BME280;62767;50.300;8.070;2024-02-21T03:44:32;100546.69;;;21.20;41.32
74343;BME280;62767;50.300;8.070;2024-02-21T03:47:01;100557.03;;;21.23;41.35
74343;BME280;62767;50.300;8.070;2024-02-21T03:49:27;100551.59;;;21.25;41.26
74343;BME280;62767;50.300;8.070;2024-02-21T03:51:52;100551.44;;;21.26;41.36
74343;BME280;62767;50.300;8.070;2024-02-21T03:54:18;100549.50;;;21.28;41.19
74343;BME280;62767;50.300;8.070;2024-02-21T03:56:44;100537.75;;;21.31;41.08
74343;BME280;62767;50.300;8.070;2024-02-21T03:59:09;100534.97;;;21.32;41.07
74343;BME280;62767;50.300;8.070;2024-02-21T04:01:35;100533.88;;;21.35;40.97
74343;BME280;62767;50.300;8.070;2024-02-21T04:04:01;100530.38;;;21.34;41.05
74343;BME280;62767;50.300;8.070;2024-02-21T04:06:26;100525.94;;;21.35;41.16
74343;BME280;62767;50.300;8.070;2024-02-21T04:08:52;100518.53;;;21.38;40.76
74343;BME280;62767;50.300;8.070;2024-02-21T04:11:17;100528.00;;;21.41;40.93
74343;BME280;62767;50.300;8.070;2024-02-21T04:13:44;100525.19;;;21.43;40.81
74343;BME280;62767;50.300;8.070;2024-02-21T04:16:10;100523.97;;;21.47;40.69
74343;BME280;62767;50.300;8.070;2024-02-21T04:18:36;100519.50;;;21.47;40.51
74343;BME280;62767;50.300;8.070;2024-02-21T04:21:01;100516.53;;;21.50;40.55
74343;BME280;62767;50.300;8.070;2024-02-21T04:23:27;100511.94;;;21.52;40.15
74343;BME280;62767;50.300;8.070;2024-02-21T04:25:52;100512.09;;;21.51;40.55
74343;BME280;62767;50.300;8.070;2024-02-21T04:28:18;100512.09;;;21.51;40.32
74343;BME280;62767;50.300;8.070;2024-02-21T04:30:43;100507.91;;;21.48;40.24
74343;BME280;62767;50.300;8.070;2024-02-21T04:33:09;100507.09;;;21.48;40.56
74343;BME280;62767;50.300;8.070;2024-02-21T04:35:36;100502.06;;;21.45;40.42
74343;BME280;62767;50.300;8.070;2024-02-21T04:38:01;100488.28;;;21.41;40.49
74343;BME280;62767;50.300;8.070;2024-02-21T04:40:27;100480.63;;;21.38;40.52
74343;BME280;62767;50.300;8.070;2024-02-21T04:42:52;100477.44;;;21.34;40.85
74343;BME280;62767;50.300;8.070;2024-02-21T04:45:18;100477.03;;;21.29;40.63
74343;BME280;62767;50.300;8.070;2024-02-21T04:47:43;100485.25;;;21.26;40.91
74343;BME280;62767;50.300;8.070;2024-02-21T04:50:09;100495.28;;;21.23;40.94
74343;BME280;62767;50.300;8.070;2024-02-21T04:52:35;100489.28;;;21.21;41.16
74343;BME280;62767;50.300;8.070;2024-02-21T04:55:00;100492.78;;;21.21;41.19
74343;BME280;62767;50.300;8.070;2024-02-21T04:57:26;100492.66;;;21.23;40.87
74343;BME280;62767;50.300;8.070;2024-02-21T04:59:51;100488.19;;;21.23;40.91
74343;BME280;62767;50.300;8.070;2024-02-21T05:02:17;100485.25;;;21.26;40.97
74343;BME280;62767;50.300;8.070;2024-02-21T05:04:43;100487.63;;;21.29;40.78
74343;BME280;62767;50.300;8.070;2024-02-21T05:07:09;100488.03;;;21.34;40.56
74343;BME280;62767;50.300;8.070;2024-02-21T05:09:36;100474.66;;;21.36;40.50
74343;BME280;62767;50.300;8.070;2024-02-21T05:12:01;100478.13;;;21.36;40.81
74343;BME280;62767;50.300;8.070;2024-02-21T05:14:27;100473.63;;;21.37;40.43
74343;BME280;62767;50.300;8.070;2024-02-21T05:16:53;100482.41;;;21.37;40.36
74343;BME280;62767;50.300;8.070;2024-02-21T05:19:18;100478.81;;;21.38;40.62
74343;BME280;62767;50.300;8.070;2024-02-21T05:21:44;100475.47;;;21.36;40.42
74343;BME280;62767;50.300;8.070;2024-02-21T05:24:10;100472.97;;;21.35;40.67
74343;BME280;62767;50.300;8.070;2024-02-21T05:26:35;100457.22;;;21.33;40.67
74343;BME280;62767;50.300;8.070;2024-02-21T05:29:01;100466.44;;;21.29;40.56
74343;BME280;62767;50.300;8.070;2024-02-21T05:31:43;100460.03;;;21.22;40.68
74343;BME280;62767;50.300;8.070;2024-02-21T05:34:20;100449.28;;;21.14;40.84
74343;BME280;62767;50.300;8.070;2024-02-21T05:36:46;100447.91;;;21.10;41.04
74343;BME280;62767;50.300;8.070;2024-02-21T05:39:13;100454.16;;;21.09;40.78
74343;BME280;62767;50.300;8.070;2024-02-21T05:41:38;100448.88;;;21.09;41.02
74343;BME280;62767;50.300;8.070;2024-02-21T05:44:04;100450.69;;;21.09;40.95
74343;BME280;62767;50.300;8.070;2024-02-21T05:46:29;100446.53;;;21.06;40.82
74343;BME280;62767;50.300;8.070;2024-02-21T05:48:55;100436.50;;;21.00;41.24
74343;BME280;62767;50.300;8.070;2024-02-21T05:51:20;100429.97;;;20.94;41.23
74343;BME280;62767;50.300;8.070;2024-02-21T05:53:46;100431.25;;;20.90;41.35
74343;BME280;62767;50.300;8.070;2024-02-21T05:56:12;100429.84;;;20.86;41.30
74343;BME280;62767;50.300;8.070;2024-02-21T05:58:38;100441.81;;;20.81;41.34
74343;BME280;62767;50.300;8.070;2024-02-21T06:01:03;100443.94;;;20.77;41.38
74343;BME280;62767;50.300;8.070;2024-02-21T06:03:30;100448.66;;;20.74;41.68
74343;BME280;62767;50.300;8.070;2024-02-21T06:05:56;100449.06;;;20.69;41.69
74343;BME280;62767;50.300;8.070;2024-02-21T06:08:21;100445.03;;;20.65;41.71
74343;BME280;62767;50.300;8.070;2024-02-21T06:10:47;100442.66;;;20.62;41.68
74343;BME280;62767;50.300;8.070;2024-02-21T06:13:14;100446.56;;;20.58;41.75
74343;BME280;62767;50.300;8.070;2024-02-21T06:15:40;100441.56;;;20.55;41.97
74343;BME280;62767;50.300;8.070;2024-02-21T06:18:05;100434.75;;;20.52;41.95
74343;BME280;62767;50.300;8.070;2024-02-21T06:20:31;100427.94;;;20.50;42.08
74343;BME280;62767;50.300;8.070;2024-02-21T06:22:57;100421.22;;;20.46;41.98
74343;BME280;62767;50.300;8.070;2024-02-21T06:25:22;100408.19;;;20.44;42.11
74343;BME280;62767;50.300;8.070;2024-02-21T06:27:48;100411.09;;;20.41;42.13
74343;BME280;62767;50.300;8.070;2024-02-21T06:30:13;100404.25;;;20.39;41.95
74343;BME280;62767;50.300;8.070;2024-02-21T06:32:39;100409.69;;;20.37;41.99
74343;BME280;62767;50.300;8.070;2024-02-21T06:35:05;100406.63;;;20.32;42.14
74343;BME280;62767;50.300;8.070;2024-02-21T06:37:31;100415.41;;;20.33;42.30
74343;BME280;62767;50.300;8.070;2024-02-21T06:39:57;100406.75;;;20.31;42.36
74343;BME280;62767;50.300;8.070;2024-02-21T06:42:26;100415.75;;;20.28;42.19
74343;BME280;62767;50.300;8.070;2024-02-21T06:44:51;100421.22;;;20.27;42.17
74343;BME280;62767;50.300;8.070;2024-02-21T06:47:17;100414.25;;;20.26;42.22
74343;BME280;62767;50.300;8.070;2024-02-21T06:49:43;100410.91;;;20.24;42.47
74343;BME280;62767;50.300;8.070;2024-02-21T06:52:08;100403.25;;;20.21;42.63
74343;BME280;62767;50.300;8.070;2024-02-21T06:54:34;100403.38;;;20.19;42.26
74343;BME280;62767;50.300;8.070;2024-02-21T06:56:59;100413.13;;;20.19;42.25
74343;BME280;62767;50.300;8.070;2024-02-21T06:59:25;100419.38;;;20.17;42.54
74343;BME280;62767;50.300;8.070;2024-02-21T07:01:54;100418.69;;;20.15;42.41
74343;BME280;62767;50.300;8.070;2024-02-21T07:04:21;100414.38;;;20.14;42.39
74343;BME280;62767;50.300;8.070;2024-02-21T07:06:46;100408.38;;;20.12;42.42
74343;BME280;62767;50.300;8.070;2024-02-21T07:09:12;100405.88;;;20.11;42.47
74343;BME280;62767;50.300;8.070;2024-02-21T07:11:39;100409.47;;;20.10;42.45
74343;BME280;62767;50.300;8.070;2024-02-21T07:14:07;100424.53;;;20.09;42.62
74343;BME280;62767;50.300;8.070;2024-02-21T07:16:33;100422.03;;;20.08;42.61
74343;BME280;62767;50.300;8.070;2024-02-21T07:18:58;100427.56;;;20.05;42.67
74343;BME280;62767;50.300;8.070;2024-02-21T07:21:24;100431.03;;;20.05;42.47
74343;BME280;62767;50.300;8.070;2024-02-21T07:23:49;100438.13;;;20.05;42.64
74343;BME280;62767;50.300;8.070;2024-02-21T07:26:15;100427.72;;;20.03;42.44
74343;BME280;62767;50.300;8.070;2024-02-21T07:28:40;100429.53;;;20.03;42.72
74343;BME280;62767;50.300;8.070;2024-02-21T07:31:06;100426.16;;;20.01;42.57
74343;BME280;62767;50.300;8.070;2024-02-21T07:33:31;100424.38;;;20.01;42.61
74343;BME280;62767;50.300;8.070;2024-02-21T07:35:57;100416.44;;;20.01;42.79
74343;BME280;62767;50.300;8.070;2024-02-21T07:38:23;100420.88;;;20.01;42.82
74343;BME280;62767;50.300;8.070;2024-02-21T07:40:48;100425.19;;;20.02;43.07
74343;BME280;62767;50.300;8.070;2024-02-21T07:43:14;100424.06;;;20.04;43.15
74343;BME280;62767;50.300;8.070;2024-02-21T07:45:39;100428.56;;;20.04;43.35
74343;BME280;62767;50.300;8.070;2024-02-21T07:48:05;100420.88;;;20.10;43.32
74343;BME280;62767;50.300;8.070;2024-02-21T07:50:31;100420.75;;;20.22;43.12
74343;BME280;62767;50.300;8.070;2024-02-21T07:52:57;100417.88;;;20.34;43.04
74343;BME280;62767;50.300;8.070;2024-02-21T07:55:23;100411.50;;;20.46;42.93
74343;BME280;62767;50.300;8.070;2024-02-21T07:57:48;100413.31;;;20.55;42.70
74343;BME280;62767;50.300;8.070;2024-02-21T08:00:15;100415.81;;;20.67;42.60
74343;BME280;62767;50.300;8.070;2024-02-21T08:02:46;100406.75;;;20.79;42.28
74343;BME280;62767;50.300;8.070;2024-02-21T08:05:11;100403.38;;;20.86;42.10
74343;BME280;62767;50.300;8.070;2024-02-21T08:07:38;100403.81;;;20.82;41.97
74343;BME280;62767;50.300;8.070;2024-02-21T08:10:04;100394.38;;;20.50;39.87
74343;BME280;62767;50.300;8.070;2024-02-21T08:12:30;100381.16;;;20.50;41.01
74343;BME280;62767;50.300;8.070;2024-02-21T08:14:55;100381.72;;;20.73;40.85
74343;BME280;62767;50.300;8.070;2024-02-21T08:17:20;100380.28;;;20.88;40.94
74343;BME280;62767;50.300;8.070;2024-02-21T08:19:46;100369.94;;;20.95;41.20
74343;BME280;62767;50.300;8.070;2024-02-21T08:22:13;100372.03;;;21.01;41.07
74343;BME280;62767;50.300;8.070;2024-02-21T08:24:38;100373.41;;;21.05;41.24
74343;BME280;62767;50.300;8.070;2024-02-21T08:27:04;100367.97;;;21.07;41.21
74343;BME280;62767;50.300;8.070;2024-02-21T08:29:29;100372.69;;;21.13;41.27
74343;BME280;62767;50.300;8.070;2024-02-21T08:31:55;100376.88;;;21.15;41.51
74343;BME280;62767;50.300;8.070;2024-02-21T08:34:20;100373.13;;;21.18;41.46
74343;BME280;62767;50.300;8.070;2024-02-21T08:36:46;100375.91;;;21.16;41.54
74343;BME280;62767;50.300;8.070;2024-02-21T08:39:11;100363.38;;;21.18;41.90
74343;BME280;62767;50.300;8.070;2024-02-21T08:41:40;100354.28;;;21.21;41.79
74343;BME280;62767;50.300;8.070;2024-02-21T08:44:06;100354.16;;;21.22;41.62
74343;BME280;62767;50.300;8.070;2024-02-21T08:46:32;100353.69;;;21.27;41.86
74343;BME280;62767;50.300;8.070;2024-02-21T08:48:58;100341.44;;;21.26;41.77
74343;BME280;62767;50.300;8.070;2024-02-21T08:51:23;100341.16;;;21.29;42.30
74343;BME280;62767;50.300;8.070;2024-02-21T08:53:49;100336.84;;;21.28;41.78
74343;BME280;62767;50.300;8.070;2024-02-21T08:56:15;100330.56;;;21.29;41.90
74343;BME280;62767;50.300;8.070;2024-02-21T08:58:41;100328.75;;;21.29;42.11
74343;BME280;62767;50.300;8.070;2024-02-21T09:01:07;100329.28;;;21.33;42.03
74343;BME280;62767;50.300;8.070;2024-02-21T09:03:37;100322.19;;;21.33;42.09
74343;BME280;62767;50.300;8.070;2024-02-21T09:06:03;100318.41;;;21.36;42.05
74343;BME280;62767;50.300;8.070;2024-02-21T09:08:29;100320.22;;;21.35;42.16
74343;BME280;62767;50.300;8.070;2024-02-21T09:10:55;100313.25;;;21.34;42.15
74343;BME280;62767;50.300;8.070;2024-02-21T09:13:20;100307.00;;;21.35;41.99
74343;BME280;62767;50.300;8.070;2024-02-21T09:15:47;100305.00;;;21.37;42.20
74343;BME280;62767;50.300;8.070;2024-02-21T09:18:13;100292.34;;;21.31;42.30
74343;BME280;62767;50.300;8.070;2024-02-21T09:20:39;100294.59;;;21.36;42.28
74343;BME280;62767;50.300;8.070;2024-02-21T09:23:04;100300.84;;;21.35;42.12
74343;BME280;62767;50.300;8.070;2024-02-21T09:25:32;100293.75;;;21.35;42.13
74343;BME280;62767;50.300;8.070;2024-02-21T09:27:57;100309.44;;;20.73;40.09
74343;BME280;62767;50.300;8.070;2024-02-21T09:30:24;100304.06;;;20.45;40.90
74343;BME280;62767;50.300;8.070;2024-02-21T09:32:50;100295.00;;;20.29;41.06
74343;BME280;62767;50.300;8.070;2024-02-21T09:35:15;100291.00;;;20.15;41.31
74343;BME280;62767;50.300;8.070;2024-02-21T09:37:41;100291.00;;;20.05;41.55
74343;BME280;62767;50.300;8.070;2024-02-21T09:40:07;100280.84;;;20.01;41.48
74343;BME280;62767;50.300;8.070;2024-02-21T09:42:40;100278.75;;;19.95;41.62
74343;BME280;62767;50.300;8.070;2024-02-21T09:45:26;100271.13;;;19.92;41.95
74343;BME280;62767;50.300;8.070;2024-02-21T09:50:21;100270.41;;;19.99;41.21
74343;BME280;62767;50.300;8.070;2024-02-21T09:52:48;100266.81;;;20.00;41.32
74343;BME280;62767;50.300;8.070;2024-02-21T09:55:14;100262.47;;;19.99;41.21
74343;BME280;62767;50.300;8.070;2024-02-21T09:57:44;100247.63;;;19.98;41.43
74343;BME280;62767;50.300;8.070;2024-02-21T10:00:10;100250.66;;;19.94;41.04
74343;BME280;62767;50.300;8.070;2024-02-21T10:02:39;100256.38;;;19.99;41.43
74343;BME280;62767;50.300;8.070;2024-02-21T10:05:05;100256.47;;;20.55;40.71
74343;BME280;62767;50.300;8.070;2024-02-21T10:07:33;100250.88;;;20.95;40.16
74343;BME280;62767;50.300;8.070;2024-02-21T10:10:06;100247.28;;;21.23;39.97
74343;BME280;62767;50.300;8.070;2024-02-21T10:12:32;100245.88;;;21.47;39.52
74343;BME280;62767;50.300;8.070;2024-02-21T10:15:05;100243.75;;;21.68;39.58
74343;BME280;62767;50.300;8.070;2024-02-21T10:17:35;100234.13;;;21.85;39.30
74343;BME280;62767;50.300;8.070;2024-02-21T10:20:11;100226.19;;;22.02;38.97
74343;BME280;62767;50.300;8.070;2024-02-21T10:22:38;100221.19;;;22.17;39.21
74343;BME280;62767;50.300;8.070;2024-02-21T10:25:11;100224.41;;;22.29;39.26
74343;BME280;62767;50.300;8.070;2024-02-21T10:27:38;100217.81;;;22.41;38.76
74343;BME280;62767;50.300;8.070;2024-02-21T10:30:13;100221.22;;;22.51;38.77
74343;BME280;62767;50.300;8.070;2024-02-21T10:32:52;100211.31;;;22.61;39.02
74343;BME280;62767;50.300;8.070;2024-02-21T10:35:29;100207.06;;;22.68;38.96
74343;BME280;62767;50.300;8.070;2024-02-21T10:37:56;100201.66;;;22.78;38.85
74343;BME280;62767;50.300;8.070;2024-02-21T10:40:25;100203.81;;;22.82;38.61
74343;BME280;62767;50.300;8.070;2024-02-21T10:42:58;100195.56;;;22.85;38.79
74343;BME280;62767;50.300;8.070;2024-02-21T10:45:29;100192.56;;;22.88;38.76
74343;BME280;62767;50.300;8.070;2024-02-21T10:48:11;100192.41;;;22.90;39.02
74343;BME280;62767;50.300;8.070;2024-02-21T10:50:52;100192.06;;;22.93;38.78
74343;BME280;62767;50.300;8.070;2024-02-21T10:53:29;100185.13;;;22.92;39.00
74343;BME280;62767;50.300;8.070;2024-02-21T10:56:11;100171.84;;;22.92;39.03
74343;BME280;62767;50.300;8.070;2024-02-21T10:58:39;100170.00;;;22.92;39.21
74343;BME280;62767;50.300;8.070;2024-02-21T11:01:05;100166.22;;;22.95;39.20
74343;BME280;62767;50.300;8.070;2024-02-21T11:03:31;100166.38;;;22.93;39.15
74343;BME280;62767;50.300;8.070;2024-02-21T11:05:57;100158.75;;;22.90;39.33
74343;BME280;62767;50.300;8.070;2024-02-21T11:08:23;100158.75;;;22.90;39.35
74343;BME280;62767;50.300;8.070;2024-02-21T11:10:50;100155.56;;;22.87;39.31
74343;BME280;62767;50.300;8.070;2024-02-21T11:13:15;100150.25;;;22.87;39.25
74343;BME280;62767;50.300;8.070;2024-02-21T11:15:41;100147.09;;;22.83;39.69
74343;BME280;62767;50.300;8.070;2024-02-21T11:18:06;100143.44;;;22.84;39.51
74343;BME280;62767;50.300;8.070;2024-02-21T11:20:36;100140.13;;;22.82;39.59
74343;BME280;62767;50.300;8.070;2024-02-21T11:23:02;100134.50;;;22.85;39.77
74343;BME280;62767;50.300;8.070;2024-02-21T11:25:28;100124.88;;;22.84;39.89
74343;BME280;62767;50.300;8.070;2024-02-21T11:28:00;100120.41;;;22.85;39.52
74343;BME280;62767;50.300;8.070;2024-02-21T11:30:32;100118.72;;;22.84;39.77
74343;BME280;62767;50.300;8.070;2024-02-21T11:33:02;100114.25;;;22.84;39.97
74343;BME280;62767;50.300;8.070;2024-02-21T11:35:32;100105.97;;;22.79;40.08
74343;BME280;62767;50.300;8.070;2024-02-21T11:38:11;100102.31;;;22.80;39.94
74343;BME280;62767;50.300;8.070;2024-02-21T11:40:44;100098.66;;;22.81;40.12
74343;BME280;62767;50.300;8.070;2024-02-21T11:43:10;100089.03;;;22.88;39.87
74343;BME280;62767;50.300;8.070;2024-02-21T11:45:36;100086.38;;;22.80;38.86
74343;BME280;62767;50.300;8.070;2024-02-21T11:48:02;100082.56;;;22.33;37.85
74343;BME280;62767;50.300;8.070;2024-02-21T11:50:30;100073.31;;;22.45;38.04
74343;BME280;62767;50.300;8.070;2024-02-21T11:52:57;100058.09;;;22.55;38.53
74343;BME280;62767;50.300;8.070;2024-02-21T11:55:22;100057.25;;;22.54;38.78
74343;BME280;62767;50.300;8.070;2024-02-21T11:57:48;100047.31;;;22.65;39.29
74343;BME280;62767;50.300;8.070;2024-02-21T12:00:14;100047.66;;;22.70;39.13
74343;BME280;62767;50.300;8.070;2024-02-21T12:02:41;100043.41;;;22.77;39.45
74343;BME280;62767;50.300;8.070;2024-02-21T12:05:07;100038.09;;;22.77;39.39
74343;BME280;62767;50.300;8.070;2024-02-21T12:07:33;100027.16;;;22.72;39.96
74343;BME280;62767;50.300;8.070;2024-02-21T12:09:59;100027.97;;;22.72;39.98
74343;BME280;62767;50.300;8.070;2024-02-21T12:12:25;100014.38;;;22.75;39.85
74343;BME280;62767;50.300;8.070;2024-02-21T12:14:55;100000.13;;;22.76;39.76
74343;BME280;62767;50.300;8.070;2024-02-21T12:17:23;100002.13;;;22.74;40.28
74343;BME280;62767;50.300;8.070;2024-02-21T12:19:50;99998.91;;;22.71;40.02
74343;BME280;62767;50.300;8.070;2024-02-21T12:22:18;99996.25;;;22.71;40.14
74343;BME280;62767;50.300;8.070;2024-02-21T12:24:43;99988.66;;;22.68;40.16
74343;BME280;62767;50.300;8.070;2024-02-21T12:27:13;99979.03;;;22.67;40.43
74343;BME280;62767;50.300;8.070;2024-02-21T12:29:39;99964.94;;;22.66;40.21
74343;BME280;62767;50.300;8.070;2024-02-21T12:32:05;99966.75;;;22.66;40.48
74343;BME280;62767;50.300;8.070;2024-02-21T12:34:30;99965.06;;;22.65;40.41
74343;BME280;62767;50.300;8.070;2024-02-21T12:36:58;99966.06;;;22.64;40.25
74343;BME280;62767;50.300;8.070;2024-02-21T12:39:24;99964.09;;;22.66;40.51
74343;BME280;62767;50.300;8.070;2024-02-21T12:41:50;99969.25;;;22.67;40.61
74343;BME280;62767;50.300;8.070;2024-02-21T12:44:15;99962.47;;;22.73;40.46
74343;BME280;62767;50.300;8.070;2024-02-21T12:46:42;99954.38;;;22.74;40.36
74343;BME280;62767;50.300;8.070;2024-02-21T12:49:08;99944.56;;;22.75;40.38